createdAt,value
2023-04-27T00:02:16.763Z,8.59
2023-04-27T00:05:26.731Z,8.52
2023-04-27T00:08:41.750Z,8.64
2023-04-27T00:11:49.638Z,8.67
2023-04-27T00:15:04.678Z,8.62
2023-04-27T00:18:26.610Z,8.68
2023-04-27T00:21:35.158Z,8.71
2023-04-27T00:24:49.605Z,8.71
2023-04-27T00:27:58.386Z,8.59
2023-04-27T00:31:07.089Z,8.52
2023-04-27T00:34:15.650Z,8.60
2023-04-27T00:37:24.570Z,8.55
2023-04-27T00:40:40.075Z,8.45
2023-04-27T00:43:44.145Z,8.45
2023-04-27T00:46:59.679Z,8.52
2023-04-27T00:50:01.530Z,8.53
2023-04-27T00:53:16.683Z,8.53
2023-04-27T00:56:24.683Z,8.59
2023-04-27T00:59:40.190Z,8.56
2023-04-27T01:02:48.764Z,8.58
2023-04-27T01:05:58.010Z,8.62
2023-04-27T01:09:07.447Z,8.73
2023-04-27T01:12:21.622Z,8.76
2023-04-27T01:15:23.240Z,8.77
2023-04-27T01:18:44.649Z,8.75
2023-04-27T01:21:53.435Z,8.72
2023-04-27T01:25:01.654Z,8.66
2023-04-27T01:28:16.722Z,8.66
2023-04-27T01:31:18.578Z,8.43
2023-04-27T01:34:33.694Z,8.39
2023-04-27T01:37:42.698Z,8.37
2023-04-27T01:40:57.966Z,8.28
2023-04-27T01:44:05.730Z,8.30
2023-04-27T01:47:16.277Z,8.27
2023-04-27T01:50:24.706Z,8.25
2023-04-27T01:53:39.719Z,8.20
2023-04-27T01:56:41.845Z,8.16
2023-04-27T01:59:56.702Z,8.17
2023-04-27T02:03:04.979Z,8.16
2023-04-27T02:06:19.677Z,8.28
2023-04-27T02:09:28.250Z,8.33
2023-04-27T02:12:42.717Z,8.42
2023-04-27T02:16:04.719Z,8.39
2023-04-27T02:19:20.005Z,8.31
2023-04-27T02:22:21.677Z,8.31
2023-04-27T02:25:36.705Z,8.27
2023-04-27T02:28:45.650Z,8.29
2023-04-27T02:31:54.805Z,8.32
2023-04-27T02:35:04.021Z,8.33
2023-04-27T02:38:11.762Z,8.22
2023-04-27T02:41:26.714Z,8.21
2023-04-27T02:44:29.046Z,8.19
2023-04-27T02:47:43.807Z,8.23
2023-04-27T02:50:52.272Z,8.25
2023-04-27T02:54:06.722Z,8.27
2023-04-27T02:57:15.237Z,8.21
2023-04-27T03:00:23.690Z,8.15
2023-04-27T03:03:38.966Z,8.16
2023-04-27T03:06:41.249Z,8.06
2023-04-27T03:09:55.709Z,7.99
2023-04-27T03:12:57.430Z,7.94
2023-04-27T03:16:13.529Z,7.96
2023-04-27T03:19:22.009Z,7.93
2023-04-27T03:22:37.743Z,7.84
2023-04-27T03:25:39.515Z,7.86
2023-04-27T03:28:53.732Z,7.94
2023-04-27T03:31:55.587Z,7.87
2023-04-27T03:35:11.762Z,7.88
2023-04-27T03:38:19.802Z,7.79
2023-04-27T03:41:28.253Z,7.73
2023-04-27T03:44:42.728Z,7.69
2023-04-27T03:47:44.688Z,7.72
2023-04-27T03:51:00.858Z,7.74
2023-04-27T03:54:10.768Z,7.73
2023-04-27T03:57:26.025Z,7.78
2023-04-27T04:00:35.050Z,7.75
2023-04-27T04:03:43.385Z,7.81
2023-04-27T04:06:53.690Z,7.76
2023-04-27T04:10:02.394Z,7.93
2023-04-27T04:13:10.748Z,8.00
2023-04-27T04:16:32.746Z,8.14
2023-04-27T04:19:47.772Z,8.36
2023-04-27T04:22:56.357Z,8.54
2023-04-27T04:26:05.448Z,8.43
2023-04-27T04:29:13.460Z,8.27
2023-04-27T04:32:30.633Z,8.17
2023-04-27T04:35:32.554Z,8.15
2023-04-27T04:38:46.732Z,8.20
2023-04-27T04:41:55.557Z,8.10
2023-04-27T04:45:03.734Z,7.95
2023-04-27T04:48:23.976Z,7.97
2023-04-27T04:51:32.397Z,7.93
2023-04-27T04:54:40.863Z,7.97
2023-04-27T04:57:49.256Z,8.11
2023-04-27T05:00:57.752Z,7.98
2023-04-27T05:04:13.300Z,8.07
2023-04-27T05:07:24.755Z,8.17
2023-04-27T05:10:33.081Z,8.33
2023-04-27T05:13:47.756Z,8.36
2023-04-27T05:17:09.790Z,8.46
2023-04-27T05:20:25.125Z,8.58
2023-04-27T05:23:33.994Z,8.68
2023-04-27T05:26:49.837Z,8.80
2023-04-27T05:29:57.779Z,8.85
2023-04-27T05:33:06.634Z,8.86
2023-04-27T05:36:14.780Z,8.88
2023-04-27T05:39:24.251Z,9.06
2023-04-27T05:42:38.778Z,9.12
2023-04-27T05:45:53.816Z,9.16
2023-04-27T05:49:09.112Z,9.32
2023-04-27T05:52:23.846Z,9.42
2023-04-27T05:55:32.445Z,9.63
2023-04-27T05:58:40.601Z,9.75
2023-04-27T06:01:55.081Z,10.00
2023-04-27T06:05:06.074Z,10.32
2023-04-27T06:08:20.833Z,10.55
2023-04-27T06:11:22.572Z,10.70
2023-04-27T06:14:37.803Z,11.05
2023-04-27T06:17:46.463Z,11.39
2023-04-27T06:21:08.872Z,11.60
2023-04-27T06:24:23.786Z,11.40
2023-04-27T06:27:25.525Z,11.40
2023-04-27T06:30:41.853Z,11.27
2023-04-27T06:33:59.927Z,11.38
2023-04-27T06:37:08.832Z,11.33
2023-04-27T06:40:18.426Z,11.32
2023-04-27T06:43:27.177Z,11.54
2023-04-27T06:46:41.864Z,11.51
2023-04-27T06:49:43.895Z,11.57
2023-04-27T06:52:59.897Z,11.60
2023-04-27T06:56:09.113Z,11.35
2023-04-27T06:59:25.903Z,11.47
2023-04-27T07:02:44.441Z,11.69
2023-04-27T07:05:53.110Z,11.73
2023-04-27T07:09:16.272Z,11.82
2023-04-27T07:12:38.506Z,11.80
2023-04-27T07:15:46.407Z,11.65
2023-04-27T07:19:01.850Z,11.62
2023-04-27T07:22:28.002Z,11.68
2023-04-27T07:25:53.059Z,11.97
2023-04-27T07:29:25.402Z,11.84
2023-04-27T07:32:43.718Z,12.04
2023-04-27T07:35:52.437Z,12.14
2023-04-27T07:39:13.566Z,12.17
2023-04-27T07:42:22.184Z,12.28
2023-04-27T07:45:30.608Z,12.22
2023-04-27T07:48:39.125Z,12.49
2023-04-27T07:51:53.856Z,12.89
2023-04-27T07:54:57.405Z,12.66
2023-04-27T07:58:13.143Z,12.70
2023-04-27T08:01:15.182Z,12.81
2023-04-27T08:04:30.144Z,12.55
2023-04-27T08:07:36.026Z,12.79
2023-04-27T08:10:59.226Z,13.24
2023-04-27T08:14:01.239Z,13.13
2023-04-27T08:17:16.170Z,12.98
2023-04-27T08:20:39.306Z,13.24
2023-04-27T08:24:01.448Z,13.54
2023-04-27T08:27:16.898Z,13.40
2023-04-27T08:30:31.986Z,13.26
2023-04-27T08:33:40.614Z,13.31
2023-04-27T08:36:48.998Z,13.60
2023-04-27T08:40:03.853Z,13.82
2023-04-27T08:43:15.923Z,14.02
2023-04-27T08:50:06.115Z,14.27
2023-04-27T08:53:30.189Z,14.53
2023-04-27T08:56:45.906Z,14.62
2023-04-27T09:00:04.983Z,15.03
2023-04-27T09:03:27.716Z,15.06
2023-04-27T09:06:39.837Z,15.46
2023-04-27T09:16:31.378Z,15.41
2023-04-27T09:19:52.929Z,14.84
2023-04-27T09:23:01.586Z,16.32
2023-04-27T09:26:15.894Z,15.59
2023-04-27T09:29:39.368Z,15.86
2023-04-27T09:32:58.965Z,15.73
2023-04-27T09:36:16.324Z,15.97
2023-04-27T09:39:21.492Z,15.97
2023-04-27T09:42:36.949Z,15.86
2023-04-27T09:45:46.746Z,16.72
2023-04-27T09:48:57.335Z,16.95
2023-04-27T09:52:12.233Z,17.12
2023-04-27T09:55:31.929Z,16.12
2023-04-27T09:58:51.823Z,15.95
2023-04-27T10:02:23.582Z,15.84
2023-04-27T10:05:57.211Z,22.43
2023-04-27T10:09:12.132Z,25.01
2023-04-27T10:12:32.954Z,25.80
2023-04-27T10:15:47.951Z,27.84
2023-04-27T10:19:04.042Z,27.35
2023-04-27T10:22:12.833Z,25.67
2023-04-27T10:25:31.690Z,27.27
2023-04-27T10:28:49.268Z,25.27
2023-04-27T10:32:07.198Z,27.82
2023-04-27T10:35:20.042Z,21.46
2023-04-27T10:38:39.903Z,23.07
2023-04-27T10:41:53.112Z,21.61
2023-04-27T10:45:08.979Z,19.64
2023-04-27T10:48:20.998Z,18.45
2023-04-27T10:51:36.661Z,24.01
2023-04-27T10:54:56.011Z,25.74
2023-04-27T10:58:04.943Z,27.99
2023-04-27T11:01:31.282Z,28.61
2023-04-27T11:04:46.720Z,27.13
2023-04-27T11:08:07.030Z,29.88
2023-04-27T11:11:25.166Z,30.60
2023-04-27T11:14:38.152Z,30.44
2023-04-27T11:17:52.980Z,29.07
2023-04-27T11:21:23.489Z,28.96
2023-04-27T11:24:39.611Z,29.36
2023-04-27T11:27:48.016Z,28.50
2023-04-27T11:30:58.307Z,24.74
2023-04-27T11:34:13.966Z,22.70
2023-04-27T11:37:22.696Z,20.59
2023-04-27T11:40:37.015Z,20.95
2023-04-27T11:43:45.968Z,19.31
2023-04-27T11:47:02.033Z,17.95
2023-04-27T11:50:30.988Z,17.12
2023-04-27T11:53:36.642Z,20.01
2023-04-27T11:56:51.148Z,19.61
2023-04-27T11:59:53.697Z,18.41
2023-04-27T12:03:10.149Z,18.34
2023-04-27T12:09:40.283Z,17.98
2023-04-27T12:12:55.008Z,18.39
2023-04-27T12:15:57.656Z,18.90
2023-04-27T12:19:20.039Z,18.63
2023-04-27T12:22:32.334Z,17.86
2023-04-27T12:25:43.314Z,18.07
2023-04-27T12:28:51.964Z,17.90
2023-04-27T12:32:11.207Z,17.75
2023-04-27T12:35:22.009Z,17.92
2023-04-27T12:38:37.013Z,17.52
2023-04-27T12:41:55.838Z,17.58
2023-04-27T12:45:07.243Z,17.47
2023-04-27T12:48:16.947Z,17.87
2023-04-27T12:51:27.564Z,17.91
2023-04-27T12:54:36.306Z,17.87
2023-04-27T12:57:51.045Z,18.09
2023-04-27T13:00:59.243Z,17.93
2023-04-27T13:04:08.156Z,17.52
2023-04-27T13:07:23.351Z,17.93
2023-04-27T13:10:47.252Z,18.12
2023-04-27T13:13:55.996Z,18.20
2023-04-27T13:17:11.045Z,18.05
2023-04-27T13:20:22.529Z,18.07
2023-04-27T13:23:38.038Z,18.01
2023-04-27T13:26:54.395Z,17.58
2023-04-27T13:30:04.531Z,17.36
2023-04-27T13:33:22.672Z,17.77
2023-04-27T13:36:31.924Z,17.59
2023-04-27T13:39:47.062Z,17.65
2023-04-27T13:42:49.124Z,17.69
2023-04-27T13:46:12.274Z,17.67
2023-04-27T13:49:21.049Z,17.74
2023-04-27T13:52:30.558Z,17.53
2023-04-27T13:55:40.085Z,17.66
2023-04-27T13:58:56.134Z,17.69
2023-04-27T14:02:01.103Z,17.73
2023-04-27T14:05:16.109Z,17.48
2023-04-27T14:08:24.683Z,17.62
2023-04-27T14:11:42.125Z,17.99
2023-04-27T14:15:03.117Z,17.76
2023-04-27T14:18:31.936Z,18.26
2023-04-27T14:21:48.123Z,18.22
2023-04-27T14:25:04.100Z,18.25
2023-04-27T14:28:06.983Z,18.09
2023-04-27T14:31:22.147Z,17.90
2023-04-27T14:34:24.305Z,18.06
2023-04-27T14:37:39.130Z,18.14
2023-04-27T14:40:40.853Z,17.85
2023-04-27T14:43:55.144Z,17.76
2023-04-27T14:47:04.225Z,17.37
2023-04-27T14:50:19.138Z,17.40
2023-04-27T14:53:27.573Z,17.41
2023-04-27T14:56:42.084Z,17.47
2023-04-27T14:59:50.579Z,17.27
2023-04-27T15:02:59.581Z,16.87
2023-04-27T15:06:08.013Z,16.76
2023-04-27T15:09:16.268Z,16.72
2023-04-27T15:12:31.157Z,16.61
2023-04-27T15:15:32.851Z,16.33
2023-04-27T15:18:47.097Z,16.33
2023-04-27T15:22:09.138Z,16.05
2023-04-27T15:25:10.986Z,15.91
2023-04-27T15:28:26.164Z,16.18
2023-04-27T15:31:34.899Z,15.96
2023-04-27T15:34:49.177Z,15.94
2023-04-27T15:38:04.137Z,15.97
2023-04-27T15:41:06.026Z,16.07
2023-04-27T15:44:21.416Z,15.98
2023-04-27T15:47:29.777Z,16.00
2023-04-27T15:50:44.428Z,15.99
2023-04-27T15:53:52.693Z,15.60
2023-04-27T15:57:01.348Z,15.51
2023-04-27T16:00:10.363Z,15.26
2023-04-27T16:03:19.407Z,15.13
2023-04-27T16:06:41.460Z,15.19
2023-04-27T16:09:43.258Z,15.24
2023-04-27T16:12:58.487Z,15.24
2023-04-27T16:16:06.148Z,15.26
2023-04-27T16:19:21.440Z,15.18
2023-04-27T16:22:29.794Z,15.15
2023-04-27T16:25:44.150Z,15.10
2023-04-27T16:32:14.504Z,15.00
2023-04-27T16:35:17.162Z,15.01
2023-04-27T16:38:32.159Z,14.92
2023-04-27T16:41:40.194Z,14.88
2023-04-27T16:44:49.098Z,14.81
2023-04-27T16:48:04.205Z,14.74
2023-04-27T16:51:06.007Z,14.75
2023-04-27T16:54:20.157Z,14.67
2023-04-27T16:57:28.157Z,14.50
2023-04-27T17:00:36.757Z,14.43
2023-04-27T17:03:45.311Z,14.49
2023-04-27T17:06:53.714Z,14.47
2023-04-27T17:10:02.158Z,14.45
2023-04-27T17:13:18.231Z,14.33
2023-04-27T17:16:26.424Z,14.26
2023-04-27T17:19:42.031Z,14.26
2023-04-27T17:22:50.242Z,14.27
2023-04-27T17:26:05.176Z,14.24
2023-04-27T17:29:20.200Z,14.17
2023-04-27T17:32:35.241Z,14.02
2023-04-27T17:35:36.919Z,13.93
2023-04-27T17:38:51.525Z,13.97
2023-04-27T17:42:00.213Z,14.02
2023-04-27T17:45:16.239Z,14.06
2023-04-27T17:48:18.420Z,14.01
2023-04-27T17:51:33.242Z,13.93
2023-04-27T17:54:42.410Z,13.89
2023-04-27T17:57:57.213Z,13.91
2023-04-27T18:01:13.300Z,13.86
2023-04-27T18:04:21.371Z,13.77
2023-04-27T18:07:30.170Z,13.78
2023-04-27T18:10:38.543Z,13.69
2023-04-27T18:13:46.894Z,13.65
2023-04-27T18:17:01.206Z,13.61
2023-04-27T18:20:16.694Z,13.66
2023-04-27T18:23:25.060Z,13.40
2023-04-27T18:26:42.303Z,13.62
2023-04-27T18:29:47.229Z,13.60
2023-04-27T18:33:02.314Z,13.61
2023-04-27T18:36:04.053Z,13.59
2023-04-27T18:39:18.252Z,13.31
2023-04-27T18:42:26.251Z,13.15
2023-04-27T18:45:35.185Z,13.07
2023-04-27T18:48:43.219Z,13.03
2023-04-27T18:51:51.874Z,12.95
2023-04-27T18:55:06.566Z,12.88
2023-04-27T18:58:14.213Z,12.88
2023-04-27T19:01:24.620Z,12.76
2023-04-27T19:04:33.371Z,12.75
2023-04-27T19:07:42.869Z,12.72
2023-04-27T19:10:58.609Z,12.69
2023-04-27T19:14:09.134Z,12.69
2023-04-27T19:17:17.333Z,12.67
2023-04-27T19:20:39.313Z,12.66
2023-04-27T19:23:41.638Z,12.63
2023-04-27T19:26:56.494Z,12.51
2023-04-27T19:30:05.253Z,12.59
2023-04-27T19:33:21.262Z,12.66
2023-04-27T19:36:29.815Z,12.49
2023-04-27T19:39:38.962Z,12.52
2023-04-27T19:42:53.276Z,12.55
2023-04-27T19:45:55.134Z,12.55
2023-04-27T19:49:10.258Z,12.53
2023-04-27T19:52:12.124Z,12.44
2023-04-27T19:55:27.328Z,12.37
2023-04-27T19:58:36.258Z,12.37
2023-04-27T20:01:44.341Z,12.30
2023-04-27T20:05:01.676Z,12.15
2023-04-27T20:08:04.053Z,12.14
2023-04-27T20:11:18.261Z,12.08
2023-04-27T20:14:26.270Z,12.03
2023-04-27T20:17:34.840Z,12.02
2023-04-27T20:20:51.132Z,11.91
2023-04-27T20:23:59.102Z,11.81
2023-04-27T20:27:07.351Z,11.74
2023-04-27T20:30:22.253Z,11.76
2023-04-27T20:33:24.025Z,11.77
2023-04-27T20:36:38.582Z,11.67
2023-04-27T20:39:40.551Z,11.51
2023-04-27T20:42:55.289Z,11.35
2023-04-27T20:46:03.355Z,11.33
2023-04-27T20:49:13.413Z,11.33
2023-04-27T20:52:32.421Z,11.28
2023-04-27T20:55:35.621Z,11.24
2023-04-27T20:58:50.473Z,11.24
2023-04-27T21:02:05.380Z,11.14
2023-04-27T21:05:07.289Z,11.09
2023-04-27T21:08:23.341Z,11.06
2023-04-27T21:11:31.346Z,11.10
2023-04-27T21:14:47.353Z,11.15
2023-04-27T21:17:55.421Z,11.11
2023-04-27T21:21:17.368Z,11.04
2023-04-27T21:24:20.030Z,11.03
2023-04-27T21:27:35.340Z,10.99
2023-04-27T21:30:38.005Z,10.97
2023-04-27T21:33:52.375Z,10.97
2023-04-27T21:37:07.336Z,11.03
2023-04-27T21:40:16.305Z,10.96
2023-04-27T21:43:31.484Z,10.93
2023-04-27T21:46:40.122Z,10.95
2023-04-27T21:49:50.568Z,10.91
2023-04-27T21:53:06.351Z,10.85
2023-04-27T21:56:08.145Z,10.78
2023-04-27T21:59:22.342Z,10.75
2023-04-27T22:02:47.625Z,10.68
2023-04-27T22:06:02.298Z,10.65
2023-04-27T22:09:10.646Z,10.68
2023-04-27T22:12:18.895Z,10.70
2023-04-27T22:15:33.566Z,10.66
2023-04-27T22:18:48.592Z,10.66
2023-04-27T22:21:57.614Z,10.62
2023-04-27T22:25:07.531Z,10.60
2023-04-27T22:28:22.346Z,10.60
2023-04-27T22:31:31.350Z,10.59
2023-04-27T22:34:46.398Z,10.58
2023-04-27T22:37:54.359Z,10.51
2023-04-27T22:41:09.325Z,10.45
2023-04-27T22:44:18.107Z,10.43
2023-04-27T22:47:25.950Z,10.40
2023-04-27T22:50:40.345Z,10.39
2023-04-27T22:53:55.381Z,10.41
2023-04-27T22:57:10.346Z,10.39
2023-04-27T23:00:12.586Z,10.26
2023-04-27T23:03:28.582Z,10.05
2023-04-27T23:06:31.048Z,9.99
2023-04-27T23:09:45.338Z,10.02
2023-04-27T23:12:53.794Z,9.98
2023-04-27T23:16:01.956Z,10.03
2023-04-27T23:19:10.382Z,10.05
2023-04-27T23:22:26.506Z,10.03
2023-04-27T23:25:35.430Z,10.05
2023-04-27T23:28:50.357Z,9.99
2023-04-27T23:31:52.319Z,9.93
2023-04-27T23:35:07.401Z,9.82
2023-04-27T23:38:09.179Z,9.84
2023-04-27T23:41:23.449Z,9.76
2023-04-27T23:44:38.374Z,9.87
2023-04-27T23:47:46.691Z,9.88
2023-04-27T23:51:00.794Z,9.82
2023-04-27T23:54:15.693Z,9.61
2023-04-27T23:57:17.573Z,9.81
